sensor_id;sensor_type;location;lat;lon;timestamp;pressure;altitude;pressure_sealevel;temperature;humidity
21011;BME280;10663;42.714;23.274;2023-01-16T00:00:10;94714.63;;;0.29;100.00
21011;BME280;10663;42.714;23.274;2023-01-16T00:01:42;94718.41;;;0.00;100.00
21011;BME280;10663;42.714;23.274;2023-01-16T00:03:12;94715.81;;;0.00;100.00
21011;BME280;10663;42.714;23.274;2023-01-16T00:04:43;94704.41;;;-0.12;100.00
21011;BME280;10663;42.714;23.274;2023-01-16T00:06:14;94707.59;;;-0.16;100.00
21011;BME280;10663;42.714;23.274;2023-01-16T00:07:45;94704.19;;;-0.23;100.00
21011;BME280;10663;42.714;23.274;2023-01-16T00:09:16;94712.38;;;-0.26;100.00
21011;BME280;10663;42.714;23.274;2023-01-16T00:10:48;94706.59;;;-0.28;100.00
21011;BME280;10663;42.714;23.274;2023-01-16T00:12:19;94701.16;;;-0.27;100.00
21011;BME280;10663;42.714;23.274;2023-01-16T00:13:50;94700.41;;;-0.21;100.00
21011;BME280;10663;42.714;23.274;2023-01-16T00:15:21;94699.41;;;0.07;100.00
21011;BME280;10663;42.714;23.274;2023-01-16T00:16:51;94698.59;;;0.39;100.00
21011;BME280;10663;42.714;23.274;2023-01-16T00:18:22;94699.41;;;0.20;100.00
21011;BME280;10663;42.714;23.274;2023-01-16T00:19:53;94699.00;;;-0.04;100.00
21011;BME280;10663;42.714;23.274;2023-01-16T00:21:24;94693.00;;;-0.11;100.00
21011;BME280;10663;42.714;23.274;2023-01-16T00:22:56;94691.81;;;-0.02;100.00
21011;BME280;10663;42.714;23.274;2023-01-16T00:24:27;94694.00;;;0.08;100.00
21011;BME280;10663;42.714;23.274;2023-01-16T00:25:58;94691.81;;;0.25;100.00
21011;BME280;10663;42.714;23.274;2023-01-16T00:27:28;94701.00;;;0.60;100.00
21011;BME280;10663;42.714;23.274;2023-01-16T00:28:59;94686.97;;;0.42;100.00
21011;BME280;10663;42.714;23.274;2023-01-16T00:30:32;94685.78;;;0.31;100.00
21011;BME280;10663;42.714;23.274;2023-01-16T00:32:03;94684.78;;;0.32;100.00
21011;BME280;10663;42.714;23.274;2023-01-16T00:33:34;94688.41;;;0.05;100.00
21011;BME280;10663;42.714;23.274;2023-01-16T00:35:05;94682.41;;;-0.09;100.00
21011;BME280;10663;42.714;23.274;2023-01-16T00:36:36;94685.97;;;-0.17;100.00
21011;BME280;10663;42.714;23.274;2023-01-16T00:38:09;94682.59;;;-0.04;100.00
21011;BME280;10663;42.714;23.274;2023-01-16T00:39:40;94682.38;;;0.30;100.00
21011;BME280;10663;42.714;23.274;2023-01-16T00:41:10;94678.41;;;0.08;100.00
21011;BME280;10663;42.714;23.274;2023-01-16T00:42:41;94671.19;;;-0.03;100.00
21011;BME280;10663;42.714;23.274;2023-01-16T00:44:14;94677.97;;;-0.09;100.00
21011;BME280;10663;42.714;23.274;2023-01-16T00:45:45;94667.97;;;0.15;100.00
21011;BME280;10663;42.714;23.274;2023-01-16T00:47:16;94672.97;;;0.03;100.00
21011;BME280;10663;42.714;23.274;2023-01-16T00:48:47;94679.38;;;0.00;100.00
21011;BME280;10663;42.714;23.274;2023-01-16T00:50:18;94674.59;;;-0.03;100.00
21011;BME280;10663;42.714;23.274;2023-01-16T00:51:49;94670.16;;;-0.09;100.00
21011;BME280;10663;42.714;23.274;2023-01-16T00:53:20;94676.19;;;0.05;100.00
21011;BME280;10663;42.714;23.274;2023-01-16T00:54:51;94669.59;;;-0.11;100.00
21011;BME280;10663;42.714;23.274;2023-01-16T00:56:22;94677.59;;;-0.19;100.00
21011;BME280;10663;42.714;23.274;2023-01-16T00:57:53;94683.38;;;-0.23;100.00
21011;BME280;10663;42.714;23.274;2023-01-16T00:59:24;94676.38;;;-0.29;100.00
21011;BME280;10663;42.714;23.274;2023-01-16T01:00:55;94677.16;;;-0.29;100.00
21011;BME280;10663;42.714;23.274;2023-01-16T01:02:26;94671.38;;;0.02;100.00
21011;BME280;10663;42.714;23.274;2023-01-16T01:03:58;94662.38;;;0.24;100.00
21011;BME280;10663;42.714;23.274;2023-01-16T01:05:30;94660.34;;;0.20;100.00
21011;BME280;10663;42.714;23.274;2023-01-16T01:07:01;94664.78;;;0.06;100.00
21011;BME280;10663;42.714;23.274;2023-01-16T01:08:32;94671.56;;;0.00;100.00
21011;BME280;10663;42.714;23.274;2023-01-16T01:10:03;94663.56;;;0.02;100.00
21011;BME280;10663;42.714;23.274;2023-01-16T01:11:34;94664.97;;;-0.09;100.00
21011;BME280;10663;42.714;23.274;2023-01-16T01:13:05;94666.75;;;-0.22;100.00
21011;BME280;10663;42.714;23.274;2023-01-16T01:14:36;94669.38;;;-0.22;100.00
21011;BME280;10663;42.714;23.274;2023-01-16T01:16:07;94665.97;;;0.04;100.00
21011;BME280;10663;42.714;23.274;2023-01-16T01:17:39;94666.38;;;-0.13;100.00
21011;BME280;10663;42.714;23.274;2023-01-16T01:19:10;94659.75;;;-0.15;100.00
21011;BME280;10663;42.714;23.274;2023-01-16T01:20:41;94661.97;;;-0.19;100.00
21011;BME280;10663;42.714;23.274;2023-01-16T01:22:11;94654.75;;;0.03;100.00
21011;BME280;10663;42.714;23.274;2023-01-16T01:23:42;94651.78;;;-0.01;100.00
21011;BME280;10663;42.714;23.274;2023-01-16T01:25:13;94649.16;;;-0.07;100.00
21011;BME280;10663;42.714;23.274;2023-01-16T01:26:44;94637.53;;;-0.18;100.00
21011;BME280;10663;42.714;23.274;2023-01-16T01:28:15;94643.16;;;0.06;100.00
21011;BME280;10663;42.714;23.274;2023-01-16T01:29:46;94644.53;;;0.15;100.00
21011;BME280;10663;42.714;23.274;2023-01-16T01:31:17;94640.13;;;0.22;100.00
21011;BME280;10663;42.714;23.274;2023-01-16T01:32:48;94641.94;;;0.34;100.00
21011;BME280;10663;42.714;23.274;2023-01-16T01:34:19;94638.31;;;0.22;100.00
21011;BME280;10663;42.714;23.274;2023-01-16T01:35:50;94634.13;;;0.34;100.00
21011;BME280;10663;42.714;23.274;2023-01-16T01:37:21;94632.72;;;0.19;100.00
21011;BME280;10663;42.714;23.274;2023-01-16T01:38:52;94626.31;;;0.21;100.00
21011;BME280;10663;42.714;23.274;2023-01-16T01:40:23;94632.09;;;0.36;100.00
21011;BME280;10663;42.714;23.274;2023-01-16T01:41:55;94624.53;;;0.09;100.00
21011;BME280;10663;42.714;23.274;2023-01-16T01:43:51;94626.69;;;0.18;100.00
21011;BME280;10663;42.714;23.274;2023-01-16T01:45:23;94633.91;;;0.43;100.00
21011;BME280;10663;42.714;23.274;2023-01-16T01:46:55;94637.94;;;0.25;100.00
21011;BME280;10663;42.714;23.274;2023-01-16T01:48:29;94639.72;;;0.31;100.00
21011;BME280;10663;42.714;23.274;2023-01-16T01:50:04;94629.13;;;0.13;100.00
21011;BME280;10663;42.714;23.274;2023-01-16T01:51:43;94632.09;;;0.36;100.00
21011;BME280;10663;42.714;23.274;2023-01-16T01:53:18;94634.13;;;0.34;100.00
21011;BME280;10663;42.714;23.274;2023-01-16T01:54:54;94634.28;;;0.40;100.00
21011;BME280;10663;42.714;23.274;2023-01-16T01:56:51;94628.09;;;0.34;100.00
21011;BME280;10663;42.714;23.274;2023-01-16T01:58:22;94633.88;;;0.49;100.00
21011;BME280;10663;42.714;23.274;2023-01-16T02:00:04;94631.09;;;0.31;100.00
21011;BME280;10663;42.714;23.274;2023-01-16T02:01:42;94622.63;;;0.55;100.00
21011;BME280;10663;42.714;23.274;2023-01-16T02:03:15;94619.28;;;0.42;100.00
21011;BME280;10663;42.714;23.274;2023-01-16T02:04:49;94621.63;;;0.56;100.00
21011;BME280;10663;42.714;23.274;2023-01-16T02:06:40;94621.41;;;0.64;100.00
21011;BME280;10663;42.714;23.274;2023-01-16T02:08:15;94619.22;;;0.61;100.00
21011;BME280;10663;42.714;23.274;2023-01-16T02:09:47;94613.41;;;0.59;100.00
21011;BME280;10663;42.714;23.274;2023-01-16T02:11:34;94613.06;;;0.29;100.00
21011;BME280;10663;42.714;23.274;2023-01-16T02:13:07;94613.50;;;0.13;100.00
21011;BME280;10663;42.714;23.274;2023-01-16T02:14:40;94621.09;;;0.21;100.00
21011;BME280;10663;42.714;23.274;2023-01-16T02:16:11;94616.25;;;0.38;100.00
21011;BME280;10663;42.714;23.274;2023-01-16T02:18:01;94610.59;;;0.61;100.00
21011;BME280;10663;42.714;23.274;2023-01-16T02:23:47;94606.41;;;0.47;100.00
21011;BME280;10663;42.714;23.274;2023-01-16T02:25:40;94604.75;;;0.65;100.00
21011;BME280;10663;42.714;23.274;2023-01-16T02:29:24;94603.44;;;0.43;100.00
21011;BME280;10663;42.714;23.274;2023-01-16T02:36:09;94599.28;;;0.16;100.00
21011;BME280;10663;42.714;23.274;2023-01-16T02:37:49;94596.09;;;0.14;100.00
21011;BME280;10663;42.714;23.274;2023-01-16T02:39:49;94600.84;;;0.30;100.00
21011;BME280;10663;42.714;23.274;2023-01-16T02:41:32;94599.84;;;0.37;100.00
21011;BME280;10663;42.714;23.274;2023-01-16T02:43:25;94595.56;;;0.63;100.00
21011;BME280;10663;42.714;23.274;2023-01-16T02:46:45;94591.03;;;0.38;100.00
21011;BME280;10663;42.714;23.274;2023-01-16T02:48:28;94586.19;;;0.49;100.00
21011;BME280;10663;42.714;23.274;2023-01-16T02:50:20;94599.56;;;0.65;100.00
21011;BME280;10663;42.714;23.274;2023-01-16T02:51:58;94584.41;;;0.43;100.00
21011;BME280;10663;42.714;23.274;2023-01-16T02:55:33;94570.56;;;0.49;100.00
21011;BME280;10663;42.714;23.274;2023-01-16T02:57:09;94584.59;;;0.54;100.00
21011;BME280;10663;42.714;23.274;2023-01-16T02:58:44;94576.16;;;0.52;100.00
21011;BME280;10663;42.714;23.274;2023-01-16T03:00:16;94583.16;;;0.58;100.00
21011;BME280;10663;42.714;23.274;2023-01-16T03:01:50;94580.44;;;0.27;100.00
21011;BME280;10663;42.714;23.274;2023-01-16T03:03:41;94579.50;;;0.08;100.00
21011;BME280;10663;42.714;23.274;2023-01-16T03:05:13;94583.09;;;0.07;100.00
21011;BME280;10663;42.714;23.274;2023-01-16T03:09:22;94581.69;;;0.18;100.00
21011;BME280;10663;42.714;23.274;2023-01-16T03:11:22;94575.06;;;0.02;100.00
21011;BME280;10663;42.714;23.274;2023-01-16T03:13:09;94566.88;;;-0.08;100.00
21011;BME280;10663;42.714;23.274;2023-01-16T03:18:15;94553.28;;;-0.04;100.00
21011;BME280;10663;42.714;23.274;2023-01-16T03:20:04;94557.88;;;0.08;100.00
21011;BME280;10663;42.714;23.274;2023-01-16T03:23:44;94556.06;;;0.08;100.00
21011;BME280;10663;42.714;23.274;2023-01-16T03:25:28;94552.44;;;0.16;100.00
21011;BME280;10663;42.714;23.274;2023-01-16T03:27:32;94549.03;;;0.15;100.00
21011;BME280;10663;42.714;23.274;2023-01-16T03:29:38;94554.47;;;0.07;100.00
21011;BME280;10663;42.714;23.274;2023-01-16T03:31:15;94551.84;;;0.14;100.00
21011;BME280;10663;42.714;23.274;2023-01-16T03:33:11;94546.84;;;-0.08;100.00
21011;BME280;10663;42.714;23.274;2023-01-16T03:34:58;94534.88;;;-0.22;100.00
21011;BME280;10663;42.714;23.274;2023-01-16T03:36:40;94529.88;;;-0.23;100.00
21011;BME280;10663;42.714;23.274;2023-01-16T03:38:14;94528.25;;;-0.18;100.00
21011;BME280;10663;42.714;23.274;2023-01-16T03:39:50;94530.03;;;-0.05;100.00
21011;BME280;10663;42.714;23.274;2023-01-16T03:41:24;94521.88;;;-0.28;100.00
21011;BME280;10663;42.714;23.274;2023-01-16T03:44:39;94526.28;;;-0.09;100.00
21011;BME280;10663;42.714;23.274;2023-01-16T03:46:24;94512.41;;;0.04;100.00
21011;BME280;10663;42.714;23.274;2023-01-16T03:49:41;94515.38;;;0.27;100.00
21011;BME280;10663;42.714;23.274;2023-01-16T03:51:26;94513.44;;;-0.04;100.00
21011;BME280;10663;42.714;23.274;2023-01-16T03:53:00;94513.06;;;-0.21;100.00
21011;BME280;10663;42.714;23.274;2023-01-16T03:54:45;94509.63;;;-0.02;100.00
21011;BME280;10663;42.714;23.274;2023-01-16T03:56:23;94500.75;;;0.19;100.00
21011;BME280;10663;42.714;23.274;2023-01-16T03:58:07;94507.28;;;0.42;100.00
21011;BME280;10663;42.714;23.274;2023-01-16T03:59:41;94503.75;;;0.23;100.00
21011;BME280;10663;42.714;23.274;2023-01-16T04:04:44;94508.59;;;0.06;100.00
21011;BME280;10663;42.714;23.274;2023-01-16T04:08:16;94514.66;;;-0.13;100.00
21011;BME280;10663;42.714;23.274;2023-01-16T04:09:59;94508.06;;;-0.22;100.00
21011;BME280;10663;42.714;23.274;2023-01-16T04:11:33;94509.66;;;-0.21;100.00
21011;BME280;10663;42.714;23.274;2023-01-16T04:13:16;94515.09;;;-0.29;100.00
21011;BME280;10663;42.714;23.274;2023-01-16T04:14:55;94508.28;;;-0.44;100.00
21011;BME280;10663;42.714;23.274;2023-01-16T04:16:28;94509.66;;;-0.21;100.00
21011;BME280;10663;42.714;23.274;2023-01-16T04:18:01;94514.28;;;-0.30;100.00
21011;BME280;10663;42.714;23.274;2023-01-16T04:19:32;94512.47;;;-0.36;100.00
21011;BME280;10663;42.714;23.274;2023-01-16T04:21:05;94512.69;;;-0.44;100.00
21011;BME280;10663;42.714;23.274;2023-01-16T04:22:36;94504.22;;;-0.07;100.00
21011;BME280;10663;42.714;23.274;2023-01-16T04:24:07;94508.44;;;-0.06;100.00
21011;BME280;10663;42.714;23.274;2023-01-16T04:25:39;94507.03;;;-0.02;100.00
21011;BME280;10663;42.714;23.274;2023-01-16T04:27:12;94500.06;;;-0.21;100.00
21011;BME280;10663;42.714;23.274;2023-01-16T04:28:43;94495.84;;;-0.15;100.00
21011;BME280;10663;42.714;23.274;2023-01-16T04:30:14;94495.06;;;-0.29;100.00
21011;BME280;10663;42.714;23.274;2023-01-16T04:31:46;94494.81;;;-0.01;100.00
21011;BME280;10663;42.714;23.274;2023-01-16T04:33:16;94487.34;;;0.09;100.00
21011;BME280;10663;42.714;23.274;2023-01-16T04:34:47;94486.28;;;0.30;100.00
21011;BME280;10663;42.714;23.274;2023-01-16T04:36:18;94494.16;;;0.17;100.00
21011;BME280;10663;42.714;23.274;2023-01-16T04:37:49;94493.00;;;-0.07;100.00
21011;BME280;10663;42.714;23.274;2023-01-16T04:39:20;94484.22;;;-0.06;100.00
21011;BME280;10663;42.714;23.274;2023-01-16T04:40:53;94487.19;;;0.04;100.00
21011;BME280;10663;42.714;23.274;2023-01-16T04:42:24;94480.56;;;0.08;100.00
21011;BME280;10663;42.714;23.274;2023-01-16T04:43:55;94481.19;;;0.04;100.00
21011;BME280;10663;42.714;23.274;2023-01-16T04:45:26;94481.72;;;0.25;100.00
21011;BME280;10663;42.714;23.274;2023-01-16T04:46:57;94479.72;;;0.21;100.00
21011;BME280;10663;42.714;23.274;2023-01-16T04:48:28;94480.47;;;0.28;100.00
21011;BME280;10663;42.714;23.274;2023-01-16T04:49:58;94480.00;;;0.51;100.00
21011;BME280;10663;42.714;23.274;2023-01-16T04:51:29;94480.41;;;0.48;100.00
21011;BME280;10663;42.714;23.274;2023-01-16T04:53:03;94476.84;;;0.42;100.00
21011;BME280;10663;42.714;23.274;2023-01-16T04:54:34;94476.84;;;0.42;100.00
21011;BME280;10663;42.714;23.274;2023-01-16T04:56:05;94468.50;;;0.27;100.00
21011;BME280;10663;42.714;23.274;2023-01-16T04:57:36;94476.94;;;0.16;100.00
21011;BME280;10663;42.714;23.274;2023-01-16T04:59:08;94479.34;;;0.11;100.00
21011;BME280;10663;42.714;23.274;2023-01-16T05:00:39;94482.91;;;0.23;100.00
21011;BME280;10663;42.714;23.274;2023-01-16T05:02:10;94482.91;;;0.23;100.00
21011;BME280;10663;42.714;23.274;2023-01-16T05:03:41;94476.06;;;0.35;100.00
21011;BME280;10663;42.714;23.274;2023-01-16T05:05:12;94486.13;;;0.25;100.00
21011;BME280;10663;42.714;23.274;2023-01-16T05:06:43;94475.28;;;0.28;100.00
21011;BME280;10663;42.714;23.274;2023-01-16T05:08:13;94480.28;;;0.29;100.00
21011;BME280;10663;42.714;23.274;2023-01-16T05:09:47;94487.69;;;0.32;100.00
21011;BME280;10663;42.714;23.274;2023-01-16T05:11:18;94478.22;;;0.45;100.00
21011;BME280;10663;42.714;23.274;2023-01-16T05:12:49;94476.06;;;0.35;100.00
21011;BME280;10663;42.714;23.274;2023-01-16T05:14:20;94479.53;;;0.16;100.00
21011;BME280;10663;42.714;23.274;2023-01-16T05:15:50;94467.50;;;0.21;100.00
21011;BME280;10663;42.714;23.274;2023-01-16T05:17:21;94463.25;;;0.33;100.00
21011;BME280;10663;42.714;23.274;2023-01-16T05:18:55;94459.31;;;0.62;100.00
21011;BME280;10663;42.714;23.274;2023-01-16T05:20:27;94462.47;;;0.64;100.00
21011;BME280;10663;42.714;23.274;2023-01-16T05:21:57;94465.31;;;0.56;100.00
21011;BME280;10663;42.714;23.274;2023-01-16T05:23:28;94464.41;;;0.37;100.00
21011;BME280;10663;42.714;23.274;2023-01-16T05:24:59;94466.91;;;0.26;100.00
21011;BME280;10663;42.714;23.274;2023-01-16T05:26:30;94456.25;;;0.34;100.00
21011;BME280;10663;42.714;23.274;2023-01-16T05:28:02;94454.47;;;0.21;100.00
21011;BME280;10663;42.714;23.274;2023-01-16T05:29:32;94445.31;;;0.12;100.00
21011;BME280;10663;42.714;23.274;2023-01-16T05:31:04;94443.75;;;0.05;100.00
21011;BME280;10663;42.714;23.274;2023-01-16T05:32:35;94451.34;;;0.06;100.00
21011;BME280;10663;42.714;23.274;2023-01-16T05:34:06;94441.91;;;0.12;100.00
21011;BME280;10663;42.714;23.274;2023-01-16T05:35:36;94450.00;;;0.42;100.00
21011;BME280;10663;42.714;23.274;2023-01-16T05:37:07;94447.84;;;0.32;100.00
21011;BME280;10663;42.714;23.274;2023-01-16T05:38:38;94445.78;;;0.41;100.00
21011;BME280;10663;42.714;23.274;2023-01-16T05:40:10;94436.31;;;0.53;100.00
21011;BME280;10663;42.714;23.274;2023-01-16T05:41:41;94442.47;;;0.58;100.00
21011;BME280;10663;42.714;23.274;2023-01-16T05:43:12;94440.13;;;0.50;100.00
21011;BME280;10663;42.714;23.274;2023-01-16T05:44:43;94445.19;;;0.38;100.00
21011;BME280;10663;42.714;23.274;2023-01-16T05:46:14;94443.06;;;0.22;100.00
21011;BME280;10663;42.714;23.274;2023-01-16T05:47:45;94447.66;;;0.27;100.00
21011;BME280;10663;42.714;23.274;2023-01-16T05:49:15;94448.38;;;0.41;100.00
21011;BME280;10663;42.714;23.274;2023-01-16T05:50:46;94448.78;;;0.37;100.00
21011;BME280;10663;42.714;23.274;2023-01-16T05:52:17;94443.81;;;0.36;100.00
21011;BME280;10663;42.714;23.274;2023-01-16T05:53:51;94448.03;;;0.30;100.00
21011;BME280;10663;42.714;23.274;2023-01-16T05:55:23;94442.66;;;0.19;100.00
21011;BME280;10663;42.714;23.274;2023-01-16T05:56:53;94445.13;;;0.07;100.00
21011;BME280;10663;42.714;23.274;2023-01-16T05:58:25;94448.19;;;-0.03;100.00
21011;BME280;10663;42.714;23.274;2023-01-16T05:59:56;94442.19;;;-0.10;100.00
21011;BME280;10663;42.714;23.274;2023-01-16T06:01:27;94437.34;;;0.07;100.00
21011;BME280;10663;42.714;23.274;2023-01-16T06:02:57;94432.97;;;0.39;100.00
21011;BME280;10663;42.714;23.274;2023-01-16T06:04:28;94430.00;;;0.29;100.00
21011;BME280;10663;42.714;23.274;2023-01-16T06:05:59;94432.06;;;0.20;100.00
21011;BME280;10663;42.714;23.274;2023-01-16T06:07:31;94427.28;;;0.17;100.00
21011;BME280;10663;42.714;23.274;2023-01-16T06:09:02;94432.97;;;0.39;100.00
21011;BME280;10663;42.714;23.274;2023-01-16T06:10:34;94422.19;;;0.67;100.00
21011;BME280;10663;42.714;23.274;2023-01-16T06:12:05;94418.78;;;0.66;100.00
21011;BME280;10663;42.714;23.274;2023-01-16T06:13:39;94423.72;;;0.81;100.00
21011;BME280;10663;42.714;23.274;2023-01-16T06:15:10;94423.72;;;0.81;100.00
21011;BME280;10663;42.714;23.274;2023-01-16T06:16:41;94416.19;;;0.66;100.00
21011;BME280;10663;42.714;23.274;2023-01-16T06:18:12;94405.81;;;0.60;100.00
21011;BME280;10663;42.714;23.274;2023-01-16T06:19:45;94410.81;;;0.61;100.00
21011;BME280;10663;42.714;23.274;2023-01-16T06:21:16;94414.63;;;0.90;100.00
21011;BME280;10663;42.714;23.274;2023-01-16T06:22:47;94418.50;;;0.81;100.00
21011;BME280;10663;42.714;23.274;2023-01-16T06:24:18;94432.81;;;0.97;100.00
21011;BME280;10663;42.714;23.274;2023-01-16T06:25:49;94430.38;;;1.02;100.00
21011;BME280;10663;42.714;23.274;2023-01-16T06:27:20;94428.88;;;0.88;100.00
21011;BME280;10663;42.714;23.274;2023-01-16T06:28:53;94428.53;;;0.78;100.00
21011;BME280;10663;42.714;23.274;2023-01-16T06:30:26;94433.91;;;0.83;100.00
21011;BME280;10663;42.714;23.274;2023-01-16T06:31:57;94441.50;;;0.91;100.00
21011;BME280;10663;42.714;23.274;2023-01-16T06:33:28;94441.91;;;0.88;100.00
21011;BME280;10663;42.714;23.274;2023-01-16T06:34:59;94438.19;;;1.02;100.00
21011;BME280;10663;42.714;23.274;2023-01-16T06:36:30;94442.25;;;0.91;100.00
21011;BME280;10663;42.714;23.274;2023-01-16T06:38:01;94436.44;;;0.96;100.00
21011;BME280;10663;42.714;23.274;2023-01-16T06:39:32;94446.00;;;1.02;100.00
21011;BME280;10663;42.714;23.274;2023-01-16T06:41:05;94448.59;;;1.02;100.00
21011;BME280;10663;42.714;23.274;2023-01-16T06:42:36;94444.78;;;1.04;100.00
21011;BME280;10663;42.714;23.274;2023-01-16T06:44:07;94437.63;;;0.68;100.00
21011;BME280;10663;42.714;23.274;2023-01-16T06:45:38;94432.16;;;1.01;100.00
21011;BME280;10663;42.714;23.274;2023-01-16T06:47:09;94416.53;;;1.01;100.00
21011;BME280;10663;42.714;23.274;2023-01-16T06:48:40;94412.31;;;1.00;100.00
21011;BME280;10663;42.714;23.274;2023-01-16T06:50:12;94406.88;;;1.08;100.00
21011;BME280;10663;42.714;23.274;2023-01-16T06:51:43;94410.13;;;1.47;100.00
21011;BME280;10663;42.714;23.274;2023-01-16T06:53:14;94402.69;;;1.69;100.00
21011;BME280;10663;42.714;23.274;2023-01-16T06:54:45;94403.78;;;1.79;100.00
21011;BME280;10663;42.714;23.274;2023-01-16T06:56:16;94412.25;;;1.93;100.00
21011;BME280;10663;42.714;23.274;2023-01-16T06:57:47;94418.22;;;1.82;100.00
21011;BME280;10663;42.714;23.274;2023-01-16T06:59:18;94420.53;;;1.90;100.00
21011;BME280;10663;42.714;23.274;2023-01-16T07:00:49;94421.16;;;1.67;100.00
21011;BME280;10663;42.714;23.274;2023-01-16T07:02:21;94421.97;;;1.86;100.00
21011;BME280;10663;42.714;23.274;2023-01-16T07:03:52;94420.59;;;2.02;100.00
21011;BME280;10663;42.714;23.274;2023-01-16T07:05:25;94415.22;;;1.78;100.00
21011;BME280;10663;42.714;23.274;2023-01-16T07:06:56;94407.81;;;1.94;100.00
21011;BME280;10663;42.714;23.274;2023-01-16T07:08:28;94408.47;;;2.07;100.00
21011;BME280;10663;42.714;23.274;2023-01-16T07:09:58;94408.31;;;2.20;100.00
21011;BME280;10663;42.714;23.274;2023-01-16T07:11:29;94404.44;;;2.41;100.00
21011;BME280;10663;42.714;23.274;2023-01-16T07:13:00;94411.03;;;2.44;100.00
21011;BME280;10663;42.714;23.274;2023-01-16T07:14:31;94407.41;;;2.45;100.00
21011;BME280;10663;42.714;23.274;2023-01-16T07:16:21;94403.91;;;2.51;100.00
21011;BME280;10663;42.714;23.274;2023-01-16T07:18:14;94407.84;;;2.42;100.00
21011;BME280;10663;42.714;23.274;2023-01-16T07:20:04;94411.09;;;2.37;100.00
21011;BME280;10663;42.714;23.274;2023-01-16T07:21:53;94422.31;;;2.26;100.00
21011;BME280;10663;42.714;23.274;2023-01-16T07:23:56;94409.41;;;1.76;100.00
21011;BME280;10663;42.714;23.274;2023-01-16T07:25:34;94415.03;;;1.98;100.00
21011;BME280;10663;42.714;23.274;2023-01-16T07:27:06;94415.31;;;1.90;100.00
21011;BME280;10663;42.714;23.274;2023-01-16T07:28:40;94412.19;;;2.00;100.00
21011;BME280;10663;42.714;23.274;2023-01-16T07:30:11;94407.47;;;1.90;100.00
21011;BME280;10663;42.714;23.274;2023-01-16T07:31:42;94406.97;;;2.00;100.00
21011;BME280;10663;42.714;23.274;2023-01-16T07:33:14;94405.59;;;1.97;100.00
21011;BME280;10663;42.714;23.274;2023-01-16T07:34:45;94411.50;;;2.22;100.00
21011;BME280;10663;42.714;23.274;2023-01-16T07:36:16;94407.47;;;2.08;100.00
21011;BME280;10663;42.714;23.274;2023-01-16T07:37:47;94403.78;;;1.98;100.00
21011;BME280;10663;42.714;23.274;2023-01-16T07:39:18;94396.88;;;2.03;100.00
21011;BME280;10663;42.714;23.274;2023-01-16T07:40:50;94390.72;;;1.79;100.00
21011;BME280;10663;42.714;23.274;2023-01-16T07:42:20;94395.72;;;1.99;100.00
21011;BME280;10663;42.714;23.274;2023-01-16T07:43:51;94389.22;;;1.90;100.00
21011;BME280;10663;42.714;23.274;2023-01-16T07:45:22;94391.03;;;2.19;100.00
21011;BME280;10663;42.714;23.274;2023-01-16T07:46:53;94392.47;;;2.34;100.00
21011;BME280;10663;42.714;23.274;2023-01-16T07:48:24;94391.44;;;1.86;100.00
21011;BME280;10663;42.714;23.274;2023-01-16T07:49:55;94394.94;;;2.29;100.00
21011;BME280;10663;42.714;23.274;2023-01-16T07:51:29;94383.22;;;2.49;100.00
21011;BME280;10663;42.714;23.274;2023-01-16T07:53:00;94378.25;;;2.59;100.00
21011;BME280;10663;42.714;23.274;2023-01-16T07:54:30;94376.94;;;2.80;100.00
21011;BME280;10663;42.714;23.274;2023-01-16T07:56:02;94364.22;;;2.72;100.00
21011;BME280;10663;42.714;23.274;2023-01-16T07:57:36;94362.41;;;2.73;100.00
21011;BME280;10663;42.714;23.274;2023-01-16T07:59:07;94360.25;;;2.81;100.00
21011;BME280;10663;42.714;23.274;2023-01-16T08:00:38;94356.63;;;2.94;100.00
21011;BME280;10663;42.714;23.274;2023-01-16T08:02:10;94349.22;;;3.03;100.00
21011;BME280;10663;42.714;23.274;2023-01-16T08:03:41;94361.28;;;3.04;100.00
21011;BME280;10663;42.714;23.274;2023-01-16T08:05:11;94356.50;;;3.12;99.75
21011;BME280;10663;42.714;23.274;2023-01-16T08:06:42;94359.41;;;2.69;99.04
21011;BME280;10663;42.714;23.274;2023-01-16T08:08:16;94364.81;;;2.97;100.00
21011;BME280;10663;42.714;23.274;2023-01-16T08:09:47;94370.50;;;3.06;100.00
21011;BME280;10663;42.714;23.274;2023-01-16T08:11:18;94368.34;;;3.15;100.00
21011;BME280;10663;42.714;23.274;2023-01-16T08:13:08;94371.31;;;3.07;99.39
21011;BME280;10663;42.714;23.274;2023-01-16T08:14:39;94372.78;;;3.14;98.86
21011;BME280;10663;42.714;23.274;2023-01-16T08:16:09;94373.59;;;3.15;98.27
21011;BME280;10663;42.714;23.274;2023-01-16T08:17:41;94377.47;;;3.24;99.04
21011;BME280;10663;42.714;23.274;2023-01-16T08:19:11;94383.81;;;3.39;98.65
21011;BME280;10663;42.714;23.274;2023-01-16T08:20:43;94383.25;;;3.49;97.49
21011;BME280;10663;42.714;23.274;2023-01-16T08:22:15;94383.94;;;3.56;97.04
21011;BME280;10663;42.714;23.274;2023-01-16T08:23:46;94382.66;;;3.12;96.32
21011;BME280;10663;42.714;23.274;2023-01-16T08:25:19;94381.88;;;3.23;98.12
21011;BME280;10663;42.714;23.274;2023-01-16T08:26:51;94381.53;;;3.20;97.80
21011;BME280;10663;42.714;23.274;2023-01-16T08:28:22;94370.81;;;2.86;98.52
21011;BME280;10663;42.714;23.274;2023-01-16T08:29:53;94371.16;;;3.01;98.27
21011;BME280;10663;42.714;23.274;2023-01-16T08:31:24;94370.72;;;3.28;98.07
21011;BME280;10663;42.714;23.274;2023-01-16T08:32:58;94367.66;;;3.31;96.55
21011;BME280;10663;42.714;23.274;2023-01-16T08:34:29;94366.53;;;3.38;96.58
21011;BME280;10663;42.714;23.274;2023-01-16T08:36:01;94362.13;;;3.27;96.48
21011;BME280;10663;42.714;23.274;2023-01-16T08:37:33;94357.06;;;3.37;96.28
21011;BME280;10663;42.714;23.274;2023-01-16T08:39:04;94343.78;;;3.51;96.31
21011;BME280;10663;42.714;23.274;2023-01-16T08:40:35;94354.16;;;3.46;96.51